sensor_id;sensor_type;location;lat;lon;timestamp;P1;durP1;ratioP1;P2;durP2;ratioP2
13493;SDS011;6819;50.886;4.332;2023-07-09T00:02:16;9.30;;;6.82;;
13493;SDS011;6819;50.886;4.332;2023-07-09T00:04:42;13.38;;;6.63;;
13493;SDS011;6819;50.886;4.332;2023-07-09T00:09:40;12.70;;;6.68;;
13493;SDS011;6819;50.886;4.332;2023-07-09T00:12:09;11.82;;;6.30;;
13493;SDS011;6819;50.886;4.332;2023-07-09T00:14:38;12.98;;;6.78;;
13493;SDS011;6819;50.886;4.332;2023-07-09T00:17:07;11.13;;;6.70;;
13493;SDS011;6819;50.886;4.332;2023-07-09T00:19:34;11.05;;;6.40;;
13493;SDS011;6819;50.886;4.332;2023-07-09T00:22:00;10.38;;;6.40;;
13493;SDS011;6819;50.886;4.332;2023-07-09T00:24:26;11.48;;;6.60;;
13493;SDS011;6819;50.886;4.332;2023-07-09T00:26:52;11.57;;;6.60;;
13493;SDS011;6819;50.886;4.332;2023-07-09T00:29:18;9.95;;;6.53;;
13493;SDS011;6819;50.886;4.332;2023-07-09T00:31:45;12.43;;;6.50;;
13493;SDS011;6819;50.886;4.332;2023-07-09T00:34:13;14.88;;;6.40;;
13493;SDS011;6819;50.886;4.332;2023-07-09T00:36:42;9.45;;;6.60;;
13493;SDS011;6819;50.886;4.332;2023-07-09T00:39:15;14.52;;;7.13;;
13493;SDS011;6819;50.886;4.332;2023-07-09T00:41:42;12.50;;;6.68;;
13493;SDS011;6819;50.886;4.332;2023-07-09T00:44:23;14.15;;;7.20;;
13493;SDS011;6819;50.886;4.332;2023-07-09T00:49:24;10.90;;;6.75;;
13493;SDS011;6819;50.886;4.332;2023-07-09T00:51:50;12.00;;;6.65;;
13493;SDS011;6819;50.886;4.332;2023-07-09T00:54:50;12.25;;;6.57;;
13493;SDS011;6819;50.886;4.332;2023-07-09T00:57:15;8.55;;;5.70;;
13493;SDS011;6819;50.886;4.332;2023-07-09T00:59:43;12.07;;;6.43;;
13493;SDS011;6819;50.886;4.332;2023-07-09T01:02:10;9.15;;;6.18;;
13493;SDS011;6819;50.886;4.332;2023-07-09T01:04:36;10.27;;;6.25;;
13493;SDS011;6819;50.886;4.332;2023-07-09T01:07:04;10.65;;;6.22;;
13493;SDS011;6819;50.886;4.332;2023-07-09T01:09:30;12.75;;;5.78;;
13493;SDS011;6819;50.886;4.332;2023-07-09T01:12:00;9.07;;;6.05;;
13493;SDS011;6819;50.886;4.332;2023-07-09T01:14:26;9.05;;;5.75;;
13493;SDS011;6819;50.886;4.332;2023-07-09T01:16:53;8.77;;;6.53;;
13493;SDS011;6819;50.886;4.332;2023-07-09T01:19:22;11.10;;;5.78;;
13493;SDS011;6819;50.886;4.332;2023-07-09T01:21:50;10.13;;;6.63;;
13493;SDS011;6819;50.886;4.332;2023-07-09T01:24:46;10.70;;;6.80;;
13493;SDS011;6819;50.886;4.332;2023-07-09T01:27:03;11.50;;;6.85;;
13493;SDS011;6819;50.886;4.332;2023-07-09T01:29:30;10.32;;;6.70;;
13493;SDS011;6819;50.886;4.332;2023-07-09T01:31:57;12.38;;;7.20;;
13493;SDS011;6819;50.886;4.332;2023-07-09T01:34:23;11.13;;;7.18;;
13493;SDS011;6819;50.886;4.332;2023-07-09T01:36:49;12.00;;;7.20;;
13493;SDS011;6819;50.886;4.332;2023-07-09T01:39:16;10.65;;;7.05;;
13493;SDS011;6819;50.886;4.332;2023-07-09T01:41:43;12.00;;;7.00;;
13493;SDS011;6819;50.886;4.332;2023-07-09T01:44:11;11.52;;;7.28;;
13493;SDS011;6819;50.886;4.332;2023-07-09T01:46:38;11.73;;;6.97;;
13493;SDS011;6819;50.886;4.332;2023-07-09T01:49:05;11.80;;;7.10;;
13493;SDS011;6819;50.886;4.332;2023-07-09T01:51:32;9.50;;;6.57;;
13493;SDS011;6819;50.886;4.332;2023-07-09T01:53:58;14.00;;;7.47;;
13493;SDS011;6819;50.886;4.332;2023-07-09T01:56:25;9.43;;;6.47;;
13493;SDS011;6819;50.886;4.332;2023-07-09T01:58:51;13.35;;;7.28;;
13493;SDS011;6819;50.886;4.332;2023-07-09T02:01:17;11.02;;;6.68;;
13493;SDS011;6819;50.886;4.332;2023-07-09T02:03:44;12.32;;;7.03;;
13493;SDS011;6819;50.886;4.332;2023-07-09T02:06:11;9.57;;;6.25;;
13493;SDS011;6819;50.886;4.332;2023-07-09T02:08:37;11.93;;;6.32;;
13493;SDS011;6819;50.886;4.332;2023-07-09T02:11:04;8.00;;;6.13;;
13493;SDS011;6819;50.886;4.332;2023-07-09T02:13:30;8.65;;;5.75;;
13493;SDS011;6819;50.886;4.332;2023-07-09T02:15:56;10.50;;;6.30;;
13493;SDS011;6819;50.886;4.332;2023-07-09T02:18:22;12.30;;;7.00;;
13493;SDS011;6819;50.886;4.332;2023-07-09T02:20:48;10.77;;;5.97;;
13493;SDS011;6819;50.886;4.332;2023-07-09T02:23:14;9.07;;;5.72;;
13493;SDS011;6819;50.886;4.332;2023-07-09T02:25:40;8.50;;;5.57;;
13493;SDS011;6819;50.886;4.332;2023-07-09T02:28:06;9.63;;;5.60;;
13493;SDS011;6819;50.886;4.332;2023-07-09T02:30:32;10.52;;;5.68;;
13493;SDS011;6819;50.886;4.332;2023-07-09T02:32:58;11.57;;;6.22;;
13493;SDS011;6819;50.886;4.332;2023-07-09T02:35:24;8.95;;;5.72;;
13493;SDS011;6819;50.886;4.332;2023-07-09T02:37:50;8.65;;;5.72;;
13493;SDS011;6819;50.886;4.332;2023-07-09T02:40:16;10.48;;;6.13;;
13493;SDS011;6819;50.886;4.332;2023-07-09T02:42:42;8.55;;;5.75;;
13493;SDS011;6819;50.886;4.332;2023-07-09T02:45:08;7.63;;;5.60;;
13493;SDS011;6819;50.886;4.332;2023-07-09T02:47:35;10.52;;;5.20;;
13493;SDS011;6819;50.886;4.332;2023-07-09T02:50:01;9.15;;;5.30;;
13493;SDS011;6819;50.886;4.332;2023-07-09T02:52:28;9.80;;;5.40;;
13493;SDS011;6819;50.886;4.332;2023-07-09T02:54:54;9.07;;;5.25;;
13493;SDS011;6819;50.886;4.332;2023-07-09T02:57:20;7.80;;;4.78;;
13493;SDS011;6819;50.886;4.332;2023-07-09T02:59:46;9.23;;;5.28;;
13493;SDS011;6819;50.886;4.332;2023-07-09T03:02:12;11.75;;;5.22;;
13493;SDS011;6819;50.886;4.332;2023-07-09T03:04:38;10.63;;;5.45;;
13493;SDS011;6819;50.886;4.332;2023-07-09T03:07:04;9.15;;;5.38;;
13493;SDS011;6819;50.886;4.332;2023-07-09T03:09:30;7.35;;;4.93;;
13493;SDS011;6819;50.886;4.332;2023-07-09T03:11:56;8.95;;;4.97;;
13493;SDS011;6819;50.886;4.332;2023-07-09T03:14:22;6.88;;;5.18;;
13493;SDS011;6819;50.886;4.332;2023-07-09T03:16:48;7.70;;;4.65;;
13493;SDS011;6819;50.886;4.332;2023-07-09T03:19:14;9.90;;;4.70;;
13493;SDS011;6819;50.886;4.332;2023-07-09T03:21:40;7.85;;;5.28;;
13493;SDS011;6819;50.886;4.332;2023-07-09T03:24:06;9.52;;;5.18;;
13493;SDS011;6819;50.886;4.332;2023-07-09T03:26:33;8.65;;;5.13;;
13493;SDS011;6819;50.886;4.332;2023-07-09T03:28:59;7.82;;;5.10;;
13493;SDS011;6819;50.886;4.332;2023-07-09T03:31:25;13.45;;;5.82;;
13493;SDS011;6819;50.886;4.332;2023-07-09T03:33:51;11.70;;;4.57;;
13493;SDS011;6819;50.886;4.332;2023-07-09T03:36:18;8.68;;;5.20;;
13493;SDS011;6819;50.886;4.332;2023-07-09T03:38:47;10.15;;;5.18;;
13493;SDS011;6819;50.886;4.332;2023-07-09T03:41:13;8.13;;;4.88;;
13493;SDS011;6819;50.886;4.332;2023-07-09T03:43:39;9.10;;;5.18;;
13493;SDS011;6819;50.886;4.332;2023-07-09T03:46:06;10.77;;;5.30;;
13493;SDS011;6819;50.886;4.332;2023-07-09T03:48:32;8.23;;;4.60;;
13493;SDS011;6819;50.886;4.332;2023-07-09T03:50:58;6.82;;;4.82;;
13493;SDS011;6819;50.886;4.332;2023-07-09T03:53:24;10.80;;;5.65;;
13493;SDS011;6819;50.886;4.332;2023-07-09T03:55:53;14.57;;;4.63;;
13493;SDS011;6819;50.886;4.332;2023-07-09T03:58:20;9.00;;;4.90;;
13493;SDS011;6819;50.886;4.332;2023-07-09T04:00:46;11.85;;;4.80;;
13493;SDS011;6819;50.886;4.332;2023-07-09T04:03:12;12.40;;;5.93;;
13493;SDS011;6819;50.886;4.332;2023-07-09T04:05:38;8.60;;;5.00;;
13493;SDS011;6819;50.886;4.332;2023-07-09T04:08:04;10.32;;;5.28;;
13493;SDS011;6819;50.886;4.332;2023-07-09T04:10:30;8.27;;;4.72;;
13493;SDS011;6819;50.886;4.332;2023-07-09T04:12:56;9.20;;;4.93;;
13493;SDS011;6819;50.886;4.332;2023-07-09T04:15:22;9.52;;;5.28;;
13493;SDS011;6819;50.886;4.332;2023-07-09T04:17:48;9.20;;;5.10;;
13493;SDS011;6819;50.886;4.332;2023-07-09T04:20:14;9.75;;;4.72;;
13493;SDS011;6819;50.886;4.332;2023-07-09T04:22:41;9.15;;;5.15;;
13493;SDS011;6819;50.886;4.332;2023-07-09T04:25:07;13.63;;;6.32;;
13493;SDS011;6819;50.886;4.332;2023-07-09T04:27:35;10.38;;;5.45;;
13493;SDS011;6819;50.886;4.332;2023-07-09T04:30:01;8.57;;;5.03;;
13493;SDS011;6819;50.886;4.332;2023-07-09T04:32:30;8.02;;;5.03;;
13493;SDS011;6819;50.886;4.332;2023-07-09T04:34:56;7.82;;;5.43;;
13493;SDS011;6819;50.886;4.332;2023-07-09T04:37:22;10.15;;;5.03;;
13493;SDS011;6819;50.886;4.332;2023-07-09T04:39:48;8.52;;;5.38;;
13493;SDS011;6819;50.886;4.332;2023-07-09T04:42:15;7.60;;;5.35;;
13493;SDS011;6819;50.886;4.332;2023-07-09T04:44:42;11.10;;;5.50;;
13493;SDS011;6819;50.886;4.332;2023-07-09T04:47:08;10.43;;;5.40;;
13493;SDS011;6819;50.886;4.332;2023-07-09T04:49:34;12.95;;;5.35;;
13493;SDS011;6819;50.886;4.332;2023-07-09T04:52:00;8.52;;;5.72;;
13493;SDS011;6819;50.886;4.332;2023-07-09T04:54:26;11.77;;;6.10;;
13493;SDS011;6819;50.886;4.332;2023-07-09T04:56:53;13.07;;;5.82;;
13493;SDS011;6819;50.886;4.332;2023-07-09T04:59:19;15.05;;;5.70;;
13493;SDS011;6819;50.886;4.332;2023-07-09T05:01:45;8.57;;;5.30;;
13493;SDS011;6819;50.886;4.332;2023-07-09T05:04:11;10.02;;;5.20;;
13493;SDS011;6819;50.886;4.332;2023-07-09T05:06:37;11.18;;;5.07;;
13493;SDS011;6819;50.886;4.332;2023-07-09T05:09:04;7.72;;;5.25;;
13493;SDS011;6819;50.886;4.332;2023-07-09T05:11:32;9.65;;;5.13;;
13493;SDS011;6819;50.886;4.332;2023-07-09T05:13:59;11.82;;;5.70;;
13493;SDS011;6819;50.886;4.332;2023-07-09T05:16:25;10.45;;;5.32;;
13493;SDS011;6819;50.886;4.332;2023-07-09T05:18:51;10.70;;;5.03;;
13493;SDS011;6819;50.886;4.332;2023-07-09T05:21:17;10.20;;;5.32;;
13493;SDS011;6819;50.886;4.332;2023-07-09T05:23:43;11.50;;;5.20;;
13493;SDS011;6819;50.886;4.332;2023-07-09T05:26:09;8.82;;;4.95;;
13493;SDS011;6819;50.886;4.332;2023-07-09T05:28:35;8.00;;;4.97;;
13493;SDS011;6819;50.886;4.332;2023-07-09T05:31:01;12.95;;;5.10;;
13493;SDS011;6819;50.886;4.332;2023-07-09T05:33:27;9.10;;;5.07;;
13493;SDS011;6819;50.886;4.332;2023-07-09T05:35:53;10.80;;;5.63;;
13493;SDS011;6819;50.886;4.332;2023-07-09T05:38:19;11.05;;;5.03;;
13493;SDS011;6819;50.886;4.332;2023-07-09T05:40:45;13.43;;;5.88;;
13493;SDS011;6819;50.886;4.332;2023-07-09T05:43:11;8.77;;;5.22;;
13493;SDS011;6819;50.886;4.332;2023-07-09T05:45:40;8.88;;;4.93;;
13493;SDS011;6819;50.886;4.332;2023-07-09T05:48:07;13.63;;;5.38;;
13493;SDS011;6819;50.886;4.332;2023-07-09T05:50:34;9.65;;;4.97;;
13493;SDS011;6819;50.886;4.332;2023-07-09T05:53:01;13.55;;;5.82;;
13493;SDS011;6819;50.886;4.332;2023-07-09T05:55:27;11.02;;;5.60;;
13493;SDS011;6819;50.886;4.332;2023-07-09T05:57:53;8.80;;;5.03;;
13493;SDS011;6819;50.886;4.332;2023-07-09T06:00:19;8.05;;;5.47;;
13493;SDS011;6819;50.886;4.332;2023-07-09T06:02:45;12.50;;;5.38;;
13493;SDS011;6819;50.886;4.332;2023-07-09T06:05:11;11.35;;;5.70;;
13493;SDS011;6819;50.886;4.332;2023-07-09T06:07:38;8.25;;;4.97;;
13493;SDS011;6819;50.886;4.332;2023-07-09T06:10:05;11.35;;;5.75;;
13493;SDS011;6819;50.886;4.332;2023-07-09T06:12:31;11.93;;;6.07;;
13493;SDS011;6819;50.886;4.332;2023-07-09T06:14:57;12.13;;;5.90;;
13493;SDS011;6819;50.886;4.332;2023-07-09T06:17:23;9.60;;;5.53;;
13493;SDS011;6819;50.886;4.332;2023-07-09T06:19:49;8.88;;;5.45;;
13493;SDS011;6819;50.886;4.332;2023-07-09T06:22:15;11.20;;;5.70;;
13493;SDS011;6819;50.886;4.332;2023-07-09T06:24:41;8.27;;;5.95;;
13493;SDS011;6819;50.886;4.332;2023-07-09T06:27:07;9.45;;;5.97;;
13493;SDS011;6819;50.886;4.332;2023-07-09T06:29:33;10.98;;;6.47;;
13493;SDS011;6819;50.886;4.332;2023-07-09T06:31:59;9.23;;;6.07;;
13493;SDS011;6819;50.886;4.332;2023-07-09T06:34:25;8.45;;;5.78;;
13493;SDS011;6819;50.886;4.332;2023-07-09T06:36:51;8.00;;;5.65;;
13493;SDS011;6819;50.886;4.332;2023-07-09T06:39:17;12.45;;;6.72;;
13493;SDS011;6819;50.886;4.332;2023-07-09T06:41:48;12.57;;;6.85;;
13493;SDS011;6819;50.886;4.332;2023-07-09T06:44:14;13.45;;;5.93;;
13493;SDS011;6819;50.886;4.332;2023-07-09T06:46:40;10.73;;;6.90;;
13493;SDS011;6819;50.886;4.332;2023-07-09T06:49:06;15.60;;;10.00;;
13493;SDS011;6819;50.886;4.332;2023-07-09T06:51:32;14.02;;;10.00;;
13493;SDS011;6819;50.886;4.332;2023-07-09T06:53:58;17.63;;;10.55;;
13493;SDS011;6819;50.886;4.332;2023-07-09T06:56:25;22.08;;;14.77;;
13493;SDS011;6819;50.886;4.332;2023-07-09T06:58:51;28.48;;;16.42;;
13493;SDS011;6819;50.886;4.332;2023-07-09T07:01:17;29.35;;;16.80;;
13493;SDS011;6819;50.886;4.332;2023-07-09T07:03:43;25.42;;;15.98;;
13493;SDS011;6819;50.886;4.332;2023-07-09T07:06:09;28.52;;;15.25;;
13493;SDS011;6819;50.886;4.332;2023-07-09T07:08:35;26.85;;;16.55;;
13493;SDS011;6819;50.886;4.332;2023-07-09T07:11:02;28.08;;;16.77;;
13493;SDS011;6819;50.886;4.332;2023-07-09T07:13:34;30.27;;;18.27;;
13493;SDS011;6819;50.886;4.332;2023-07-09T07:16:01;30.20;;;19.08;;
13493;SDS011;6819;50.886;4.332;2023-07-09T07:18:27;30.67;;;19.75;;
13493;SDS011;6819;50.886;4.332;2023-07-09T07:20:53;36.72;;;20.85;;
13493;SDS011;6819;50.886;4.332;2023-07-09T07:23:19;34.92;;;22.02;;
13493;SDS011;6819;50.886;4.332;2023-07-09T07:25:46;34.55;;;19.65;;
13493;SDS011;6819;50.886;4.332;2023-07-09T07:28:12;33.28;;;21.08;;
13493;SDS011;6819;50.886;4.332;2023-07-09T07:30:38;36.80;;;20.98;;
13493;SDS011;6819;50.886;4.332;2023-07-09T07:33:05;33.88;;;20.83;;
13493;SDS011;6819;50.886;4.332;2023-07-09T07:35:31;32.22;;;20.95;;
13493;SDS011;6819;50.886;4.332;2023-07-09T07:37:57;34.05;;;19.40;;
13493;SDS011;6819;50.886;4.332;2023-07-09T07:40:23;35.17;;;22.50;;
13493;SDS011;6819;50.886;4.332;2023-07-09T07:42:49;39.03;;;24.48;;
13493;SDS011;6819;50.886;4.332;2023-07-09T07:45:15;37.83;;;24.48;;
13493;SDS011;6819;50.886;4.332;2023-07-09T07:47:41;34.42;;;21.80;;
13493;SDS011;6819;50.886;4.332;2023-07-09T07:50:09;38.72;;;22.95;;
13493;SDS011;6819;50.886;4.332;2023-07-09T07:52:35;39.58;;;22.48;;
13493;SDS011;6819;50.886;4.332;2023-07-09T07:55:03;34.08;;;21.48;;
13493;SDS011;6819;50.886;4.332;2023-07-09T07:57:30;36.33;;;21.80;;
13493;SDS011;6819;50.886;4.332;2023-07-09T07:59:56;36.00;;;23.90;;
13493;SDS011;6819;50.886;4.332;2023-07-09T08:02:22;34.50;;;22.30;;
13493;SDS011;6819;50.886;4.332;2023-07-09T08:04:49;35.17;;;22.08;;
13493;SDS011;6819;50.886;4.332;2023-07-09T08:07:16;34.53;;;20.98;;
13493;SDS011;6819;50.886;4.332;2023-07-09T08:09:43;36.17;;;22.00;;
13493;SDS011;6819;50.886;4.332;2023-07-09T08:12:09;31.52;;;19.88;;
13493;SDS011;6819;50.886;4.332;2023-07-09T08:14:37;37.70;;;21.38;;
13493;SDS011;6819;50.886;4.332;2023-07-09T08:17:03;31.92;;;20.77;;
13493;SDS011;6819;50.886;4.332;2023-07-09T08:19:29;39.78;;;22.52;;
13493;SDS011;6819;50.886;4.332;2023-07-09T08:21:55;36.38;;;21.27;;
13493;SDS011;6819;50.886;4.332;2023-07-09T08:24:21;35.65;;;24.10;;
13493;SDS011;6819;50.886;4.332;2023-07-09T08:26:47;39.63;;;24.55;;
13493;SDS011;6819;50.886;4.332;2023-07-09T08:29:13;36.05;;;24.20;;
13493;SDS011;6819;50.886;4.332;2023-07-09T08:31:39;40.95;;;21.65;;
13493;SDS011;6819;50.886;4.332;2023-07-09T08:34:07;32.85;;;21.13;;
13493;SDS011;6819;50.886;4.332;2023-07-09T08:36:33;33.92;;;22.45;;
13493;SDS011;6819;50.886;4.332;2023-07-09T08:39:02;31.83;;;20.00;;
13493;SDS011;6819;50.886;4.332;2023-07-09T08:44:14;38.25;;;22.27;;
13493;SDS011;6819;50.886;4.332;2023-07-09T08:52:03;36.47;;;22.08;;
13493;SDS011;6819;50.886;4.332;2023-07-09T08:54:32;31.02;;;20.90;;
13493;SDS011;6819;50.886;4.332;2023-07-09T08:57:02;33.55;;;22.13;;
13493;SDS011;6819;50.886;4.332;2023-07-09T08:59:35;31.55;;;20.50;;
13493;SDS011;6819;50.886;4.332;2023-07-09T09:02:02;33.40;;;21.17;;
13493;SDS011;6819;50.886;4.332;2023-07-09T09:04:30;33.50;;;21.15;;
13493;SDS011;6819;50.886;4.332;2023-07-09T09:07:03;34.53;;;22.73;;
13493;SDS011;6819;50.886;4.332;2023-07-09T09:09:37;31.38;;;22.05;;
13493;SDS011;6819;50.886;4.332;2023-07-09T09:12:09;34.25;;;20.95;;
13493;SDS011;6819;50.886;4.332;2023-07-09T09:14:38;32.60;;;20.10;;
13493;SDS011;6819;50.886;4.332;2023-07-09T09:17:13;38.35;;;24.38;;
13493;SDS011;6819;50.886;4.332;2023-07-09T09:19:43;34.67;;;21.88;;
13493;SDS011;6819;50.886;4.332;2023-07-09T09:22:11;32.72;;;20.52;;
13493;SDS011;6819;50.886;4.332;2023-07-09T09:27:07;34.78;;;21.48;;
13493;SDS011;6819;50.886;4.332;2023-07-09T09:29:33;31.25;;;21.95;;
13493;SDS011;6819;50.886;4.332;2023-07-09T09:31:59;31.17;;;19.95;;
13493;SDS011;6819;50.886;4.332;2023-07-09T09:34:31;30.25;;;21.88;;
13493;SDS011;6819;50.886;4.332;2023-07-09T09:36:58;32.78;;;21.13;;
13493;SDS011;6819;50.886;4.332;2023-07-09T09:39:24;30.15;;;21.00;;
13493;SDS011;6819;50.886;4.332;2023-07-09T09:41:54;31.38;;;20.98;;
13493;SDS011;6819;50.886;4.332;2023-07-09T09:44:25;36.85;;;23.90;;
13493;SDS011;6819;50.886;4.332;2023-07-09T09:46:51;27.67;;;18.25;;
13493;SDS011;6819;50.886;4.332;2023-07-09T09:49:18;30.65;;;21.55;;
13493;SDS011;6819;50.886;4.332;2023-07-09T09:51:45;27.70;;;18.67;;
13493;SDS011;6819;50.886;4.332;2023-07-09T09:54:20;28.00;;;17.90;;
13493;SDS011;6819;50.886;4.332;2023-07-09T09:56:47;25.20;;;17.40;;
13493;SDS011;6819;50.886;4.332;2023-07-09T09:59:19;24.00;;;15.23;;
13493;SDS011;6819;50.886;4.332;2023-07-09T10:01:46;24.17;;;16.40;;
13493;SDS011;6819;50.886;4.332;2023-07-09T10:04:17;21.52;;;14.27;;
13493;SDS011;6819;50.886;4.332;2023-07-09T10:06:44;20.45;;;13.88;;
13493;SDS011;6819;50.886;4.332;2023-07-09T10:09:26;19.98;;;14.68;;
13493;SDS011;6819;50.886;4.332;2023-07-09T10:12:04;20.25;;;12.35;;
13493;SDS011;6819;50.886;4.332;2023-07-09T10:17:15;17.48;;;11.60;;
13493;SDS011;6819;50.886;4.332;2023-07-09T10:22:12;16.10;;;8.82;;
13493;SDS011;6819;50.886;4.332;2023-07-09T10:24:56;15.30;;;9.02;;
13493;SDS011;6819;50.886;4.332;2023-07-09T10:27:29;19.08;;;10.48;;
13493;SDS011;6819;50.886;4.332;2023-07-09T10:30:13;17.23;;;8.50;;
13493;SDS011;6819;50.886;4.332;2023-07-09T10:32:50;11.00;;;8.13;;
13493;SDS011;6819;50.886;4.332;2023-07-09T10:35:22;12.15;;;9.02;;
13493;SDS011;6819;50.886;4.332;2023-07-09T10:37:53;13.55;;;7.95;;
13493;SDS011;6819;50.886;4.332;2023-07-09T10:40:43;10.15;;;6.40;;
13493;SDS011;6819;50.886;4.332;2023-07-09T10:43:10;15.38;;;7.75;;
13493;SDS011;6819;50.886;4.332;2023-07-09T10:45:48;14.50;;;7.63;;
13493;SDS011;6819;50.886;4.332;2023-07-09T10:48:37;11.70;;;6.95;;
13493;SDS011;6819;50.886;4.332;2023-07-09T10:51:04;13.52;;;6.97;;
13493;SDS011;6819;50.886;4.332;2023-07-09T10:53:39;10.75;;;5.88;;
13493;SDS011;6819;50.886;4.332;2023-07-09T10:56:16;10.32;;;5.57;;
13493;SDS011;6819;50.886;4.332;2023-07-09T11:01:10;12.75;;;5.50;;
13493;SDS011;6819;50.886;4.332;2023-07-09T11:03:40;9.32;;;5.22;;
13493;SDS011;6819;50.886;4.332;2023-07-09T11:06:19;7.70;;;4.70;;
13493;SDS011;6819;50.886;4.332;2023-07-09T11:08:47;8.77;;;4.90;;
13493;SDS011;6819;50.886;4.332;2023-07-09T11:11:36;8.38;;;4.50;;
13493;SDS011;6819;50.886;4.332;2023-07-09T11:14:02;9.63;;;4.13;;
13493;SDS011;6819;50.886;4.332;2023-07-09T11:16:35;7.03;;;3.30;;
13493;SDS011;6819;50.886;4.332;2023-07-09T11:19:04;8.10;;;4.40;;
13493;SDS011;6819;50.886;4.332;2023-07-09T11:21:31;14.73;;;4.63;;
13493;SDS011;6819;50.886;4.332;2023-07-09T11:23:58;9.43;;;4.47;;
13493;SDS011;6819;50.886;4.332;2023-07-09T11:29:15;7.95;;;4.00;;
13493;SDS011;6819;50.886;4.332;2023-07-09T11:31:41;7.45;;;4.07;;
13493;SDS011;6819;50.886;4.332;2023-07-09T11:34:14;8.38;;;4.00;;
13493;SDS011;6819;50.886;4.332;2023-07-09T11:36:49;7.35;;;4.13;;
13493;SDS011;6819;50.886;4.332;2023-07-09T11:39:22;8.30;;;4.32;;
13493;SDS011;6819;50.886;4.332;2023-07-09T11:41:52;8.15;;;4.05;;
13493;SDS011;6819;50.886;4.332;2023-07-09T11:44:21;7.07;;;3.95;;
13493;SDS011;6819;50.886;4.332;2023-07-09T11:49:14;8.65;;;4.13;;
13493;SDS011;6819;50.886;4.332;2023-07-09T11:51:41;6.03;;;3.90;;
13493;SDS011;6819;50.886;4.332;2023-07-09T11:54:11;7.60;;;4.00;;
13493;SDS011;6819;50.886;4.332;2023-07-09T11:56:40;9.50;;;3.85;;
13493;SDS011;6819;50.886;4.332;2023-07-09T11:59:07;9.18;;;4.22;;
13493;SDS011;6819;50.886;4.332;2023-07-09T12:01:36;11.38;;;4.00;;
13493;SDS011;6819;50.886;4.332;2023-07-09T12:04:04;7.65;;;3.70;;
13493;SDS011;6819;50.886;4.332;2023-07-09T12:06:31;6.70;;;3.40;;
13493;SDS011;6819;50.886;4.332;2023-07-09T12:08:58;6.82;;;3.63;;
13493;SDS011;6819;50.886;4.332;2023-07-09T12:13:50;8.95;;;3.88;;
13493;SDS011;6819;50.886;4.332;2023-07-09T12:16:27;7.63;;;4.53;;
13493;SDS011;6819;50.886;4.332;2023-07-09T12:18:54;12.75;;;4.00;;
13493;SDS011;6819;50.886;4.332;2023-07-09T12:21:20;7.38;;;4.30;;
13493;SDS011;6819;50.886;4.332;2023-07-09T12:23:47;11.48;;;4.68;;
13493;SDS011;6819;50.886;4.332;2023-07-09T12:26:16;9.43;;;4.72;;
13493;SDS011;6819;50.886;4.332;2023-07-09T12:28:42;9.75;;;5.43;;
13493;SDS011;6819;50.886;4.332;2023-07-09T12:31:15;11.38;;;5.78;;
13493;SDS011;6819;50.886;4.332;2023-07-09T12:33:52;12.38;;;5.55;;
13493;SDS011;6819;50.886;4.332;2023-07-09T12:36:18;8.50;;;5.47;;
13493;SDS011;6819;50.886;4.332;2023-07-09T12:38:46;11.18;;;5.68;;
13493;SDS011;6819;50.886;4.332;2023-07-09T12:43:47;12.20;;;6.10;;
13493;SDS011;6819;50.886;4.332;2023-07-09T12:46:14;10.73;;;6.00;;
13493;SDS011;6819;50.886;4.332;2023-07-09T12:48:40;13.57;;;6.35;;
13493;SDS011;6819;50.886;4.332;2023-07-09T12:51:07;10.13;;;6.20;;
13493;SDS011;6819;50.886;4.332;2023-07-09T12:53:33;12.25;;;6.60;;
13493;SDS011;6819;50.886;4.332;2023-07-09T12:56:00;15.27;;;6.57;;
13493;SDS011;6819;50.886;4.332;2023-07-09T12:58:30;10.95;;;5.88;;
13493;SDS011;6819;50.886;4.332;2023-07-09T13:00:57;11.95;;;6.47;;
13493;SDS011;6819;50.886;4.332;2023-07-09T13:03:28;16.15;;;6.75;;
13493;SDS011;6819;50.886;4.332;2023-07-09T13:05:58;13.55;;;6.53;;
13493;SDS011;6819;50.886;4.332;2023-07-09T13:08:24;13.23;;;6.00;;
13493;SDS011;6819;50.886;4.332;2023-07-09T13:10:51;10.30;;;6.60;;
13493;SDS011;6819;50.886;4.332;2023-07-09T13:13:19;17.13;;;8.30;;
13493;SDS011;6819;50.886;4.332;2023-07-09T13:18:21;12.65;;;7.53;;
13493;SDS011;6819;50.886;4.332;2023-07-09T13:20:47;15.52;;;7.75;;
13493;SDS011;6819;50.886;4.332;2023-07-09T13:23:17;13.07;;;7.00;;
13493;SDS011;6819;50.886;4.332;2023-07-09T13:25:44;13.70;;;6.65;;
13493;SDS011;6819;50.886;4.332;2023-07-09T13:28:17;13.27;;;7.22;;
13493;SDS011;6819;50.886;4.332;2023-07-09T13:30:44;11.18;;;6.60;;
13493;SDS011;6819;50.886;4.332;2023-07-09T13:33:10;12.65;;;6.63;;
13493;SDS011;6819;50.886;4.332;2023-07-09T13:35:36;13.07;;;7.20;;
13493;SDS011;6819;50.886;4.332;2023-07-09T13:38:05;12.07;;;6.85;;
13493;SDS011;6819;50.886;4.332;2023-07-09T13:40:36;9.73;;;6.55;;
13493;SDS011;6819;50.886;4.332;2023-07-09T13:43:04;14.30;;;6.50;;
13493;SDS011;6819;50.886;4.332;2023-07-09T13:45:30;9.18;;;5.80;;
13493;SDS011;6819;50.886;4.332;2023-07-09T13:47:58;9.35;;;6.50;;
13493;SDS011;6819;50.886;4.332;2023-07-09T13:50:24;11.30;;;6.43;;
13493;SDS011;6819;50.886;4.332;2023-07-09T13:52:50;12.80;;;6.13;;
13493;SDS011;6819;50.886;4.332;2023-07-09T13:55:17;9.07;;;5.70;;
13493;SDS011;6819;50.886;4.332;2023-07-09T13:57:44;11.98;;;5.30;;
13493;SDS011;6819;50.886;4.332;2023-07-09T14:00:10;11.20;;;5.53;;
13493;SDS011;6819;50.886;4.332;2023-07-09T14:02:37;10.73;;;5.15;;
13493;SDS011;6819;50.886;4.332;2023-07-09T14:05:04;7.85;;;5.15;;
13493;SDS011;6819;50.886;4.332;2023-07-09T14:07:31;13.23;;;4.90;;
13493;SDS011;6819;50.886;4.332;2023-07-09T14:09:59;9.63;;;4.80;;
13493;SDS011;6819;50.886;4.332;2023-07-09T14:12:25;9.15;;;4.70;;
13493;SDS011;6819;50.886;4.332;2023-07-09T14:14:52;6.90;;;4.43;;
13493;SDS011;6819;50.886;4.332;2023-07-09T14:17:18;8.75;;;4.50;;
13493;SDS011;6819;50.886;4.332;2023-07-09T14:19:45;8.50;;;4.38;;
13493;SDS011;6819;50.886;4.332;2023-07-09T14:22:20;9.27;;;3.47;;
13493;SDS011;6819;50.886;4.332;2023-07-09T14:24:47;7.72;;;3.58;;
13493;SDS011;6819;50.886;4.332;2023-07-09T14:27:13;6.45;;;3.67;;
13493;SDS011;6819;50.886;4.332;2023-07-09T14:29:39;5.18;;;3.10;;
13493;SDS011;6819;50.886;4.332;2023-07-09T14:32:05;7.35;;;3.63;;
13493;SDS011;6819;50.886;4.332;2023-07-09T14:34:34;5.93;;;3.70;;
13493;SDS011;6819;50.886;4.332;2023-07-09T14:37:04;6.82;;;3.80;;
13493;SDS011;6819;50.886;4.332;2023-07-09T14:39:30;6.80;;;3.40;;
13493;SDS011;6819;50.886;4.332;2023-07-09T14:41:56;5.97;;;3.58;;
13493;SDS011;6819;50.886;4.332;2023-07-09T14:44:26;6.07;;;3.70;;
13493;SDS011;6819;50.886;4.332;2023-07-09T14:46:53;7.32;;;3.63;;
13493;SDS011;6819;50.886;4.332;2023-07-09T14:49:19;5.60;;;3.45;;
13493;SDS011;6819;50.886;4.332;2023-07-09T14:51:46;5.75;;;3.63;;
13493;SDS011;6819;50.886;4.332;2023-07-09T14:54:23;7.05;;;4.28;;
13493;SDS011;6819;50.886;4.332;2023-07-09T14:56:49;8.85;;;3.90;;
13493;SDS011;6819;50.886;4.332;2023-07-09T14:59:16;8.02;;;3.95;;
13493;SDS011;6819;50.886;4.332;2023-07-09T15:01:43;6.68;;;4.07;;
13493;SDS011;6819;50.886;4.332;2023-07-09T15:06:48;8.35;;;3.90;;
13493;SDS011;6819;50.886;4.332;2023-07-09T15:09:14;6.85;;;3.78;;
13493;SDS011;6819;50.886;4.332;2023-07-09T15:11:42;6.10;;;3.65;;
13493;SDS011;6819;50.886;4.332;2023-07-09T15:14:10;7.65;;;4.28;;
13493;SDS011;6819;50.886;4.332;2023-07-09T15:16:36;9.65;;;4.05;;
13493;SDS011;6819;50.886;4.332;2023-07-09T15:19:13;8.40;;;4.30;;
13493;SDS011;6819;50.886;4.332;2023-07-09T15:21:39;7.07;;;4.03;;
13493;SDS011;6819;50.886;4.332;2023-07-09T15:24:06;7.18;;;4.40;;
13493;SDS011;6819;50.886;4.332;2023-07-09T15:26:36;7.95;;;4.30;;
13493;SDS011;6819;50.886;4.332;2023-07-09T15:29:02;9.25;;;5.03;;
13493;SDS011;6819;50.886;4.332;2023-07-09T15:31:29;9.32;;;4.40;;
13493;SDS011;6819;50.886;4.332;2023-07-09T15:33:55;8.32;;;4.25;;